sensor_id;sensor_type;location;lat;lon;timestamp;P1;durP1;ratioP1;P2;durP2;ratioP2
46463;SDS011;32161;48.148;-1.554;2023-08-06T00:01:38;12.55;;;2.47;;
46463;SDS011;32161;48.148;-1.554;2023-08-06T00:04:05;5.57;;;1.83;;
46463;SDS011;32161;48.148;-1.554;2023-08-06T00:06:33;7.00;;;2.15;;
46463;SDS011;32161;48.148;-1.554;2023-08-06T00:09:02;13.93;;;2.25;;
46463;SDS011;32161;48.148;-1.554;2023-08-06T00:11:30;13.10;;;2.67;;
46463;SDS011;32161;48.148;-1.554;2023-08-06T00:13:57;11.85;;;2.75;;
46463;SDS011;32161;48.148;-1.554;2023-08-06T00:16:25;12.00;;;2.70;;
46463;SDS011;32161;48.148;-1.554;2023-08-06T00:18:52;14.35;;;2.70;;
46463;SDS011;32161;48.148;-1.554;2023-08-06T00:21:20;13.75;;;2.45;;
46463;SDS011;32161;48.148;-1.554;2023-08-06T00:23:47;13.43;;;2.90;;
46463;SDS011;32161;48.148;-1.554;2023-08-06T00:26:16;17.95;;;2.95;;
46463;SDS011;32161;48.148;-1.554;2023-08-06T00:28:44;9.60;;;3.20;;
46463;SDS011;32161;48.148;-1.554;2023-08-06T00:31:12;11.73;;;2.90;;
46463;SDS011;32161;48.148;-1.554;2023-08-06T00:33:39;8.02;;;2.20;;
46463;SDS011;32161;48.148;-1.554;2023-08-06T00:36:07;10.68;;;2.97;;
46463;SDS011;32161;48.148;-1.554;2023-08-06T00:38:35;13.77;;;3.50;;
46463;SDS011;32161;48.148;-1.554;2023-08-06T00:41:02;10.55;;;2.75;;
46463;SDS011;32161;48.148;-1.554;2023-08-06T00:43:31;12.45;;;3.20;;
46463;SDS011;32161;48.148;-1.554;2023-08-06T00:45:58;9.82;;;2.30;;
46463;SDS011;32161;48.148;-1.554;2023-08-06T00:48:26;11.50;;;2.50;;
46463;SDS011;32161;48.148;-1.554;2023-08-06T00:50:54;15.88;;;2.83;;
46463;SDS011;32161;48.148;-1.554;2023-08-06T00:53:22;14.30;;;3.17;;
46463;SDS011;32161;48.148;-1.554;2023-08-06T00:55:49;15.73;;;2.92;;
46463;SDS011;32161;48.148;-1.554;2023-08-06T00:58:17;8.88;;;3.00;;
46463;SDS011;32161;48.148;-1.554;2023-08-06T01:00:47;11.13;;;2.40;;
46463;SDS011;32161;48.148;-1.554;2023-08-06T01:03:14;12.00;;;2.45;;
46463;SDS011;32161;48.148;-1.554;2023-08-06T01:05:42;8.82;;;2.50;;
46463;SDS011;32161;48.148;-1.554;2023-08-06T01:08:12;12.50;;;2.83;;
46463;SDS011;32161;48.148;-1.554;2023-08-06T01:10:57;11.00;;;2.25;;
46463;SDS011;32161;48.148;-1.554;2023-08-06T01:13:41;10.75;;;2.85;;
46463;SDS011;32161;48.148;-1.554;2023-08-06T01:16:14;9.05;;;2.63;;
46463;SDS011;32161;48.148;-1.554;2023-08-06T01:18:43;11.02;;;2.38;;
46463;SDS011;32161;48.148;-1.554;2023-08-06T01:21:15;12.98;;;2.38;;
46463;SDS011;32161;48.148;-1.554;2023-08-06T01:23:43;14.60;;;2.60;;
46463;SDS011;32161;48.148;-1.554;2023-08-06T01:26:14;7.90;;;2.17;;
46463;SDS011;32161;48.148;-1.554;2023-08-06T01:28:51;11.40;;;2.53;;
46463;SDS011;32161;48.148;-1.554;2023-08-06T01:31:26;11.88;;;2.72;;
46463;SDS011;32161;48.148;-1.554;2023-08-06T01:33:57;11.52;;;2.53;;
46463;SDS011;32161;48.148;-1.554;2023-08-06T01:36:28;13.57;;;2.75;;
46463;SDS011;32161;48.148;-1.554;2023-08-06T01:38:57;10.13;;;2.80;;
46463;SDS011;32161;48.148;-1.554;2023-08-06T01:41:25;8.95;;;2.38;;
46463;SDS011;32161;48.148;-1.554;2023-08-06T01:43:53;11.75;;;3.30;;
46463;SDS011;32161;48.148;-1.554;2023-08-06T01:46:20;13.63;;;2.22;;
46463;SDS011;32161;48.148;-1.554;2023-08-06T01:48:48;10.13;;;2.10;;
46463;SDS011;32161;48.148;-1.554;2023-08-06T01:51:15;16.58;;;2.28;;
46463;SDS011;32161;48.148;-1.554;2023-08-06T01:53:44;11.10;;;2.10;;
46463;SDS011;32161;48.148;-1.554;2023-08-06T01:56:12;10.90;;;2.08;;
46463;SDS011;32161;48.148;-1.554;2023-08-06T01:58:39;6.25;;;2.13;;
46463;SDS011;32161;48.148;-1.554;2023-08-06T02:01:07;10.40;;;2.10;;
46463;SDS011;32161;48.148;-1.554;2023-08-06T02:03:34;12.10;;;2.30;;
46463;SDS011;32161;48.148;-1.554;2023-08-06T02:06:02;10.45;;;1.95;;
46463;SDS011;32161;48.148;-1.554;2023-08-06T02:08:29;12.73;;;2.35;;
46463;SDS011;32161;48.148;-1.554;2023-08-06T02:10:59;11.75;;;1.90;;
46463;SDS011;32161;48.148;-1.554;2023-08-06T02:13:27;5.88;;;1.90;;
46463;SDS011;32161;48.148;-1.554;2023-08-06T02:15:55;18.45;;;3.58;;
46463;SDS011;32161;48.148;-1.554;2023-08-06T02:18:23;10.18;;;1.77;;
46463;SDS011;32161;48.148;-1.554;2023-08-06T02:20:56;8.35;;;1.80;;
46463;SDS011;32161;48.148;-1.554;2023-08-06T02:23:25;9.68;;;2.10;;
46463;SDS011;32161;48.148;-1.554;2023-08-06T02:25:58;9.65;;;2.38;;
46463;SDS011;32161;48.148;-1.554;2023-08-06T02:28:27;13.27;;;2.58;;
46463;SDS011;32161;48.148;-1.554;2023-08-06T02:30:55;15.45;;;1.77;;
46463;SDS011;32161;48.148;-1.554;2023-08-06T02:33:23;8.95;;;2.00;;
46463;SDS011;32161;48.148;-1.554;2023-08-06T02:35:50;10.63;;;2.58;;
46463;SDS011;32161;48.148;-1.554;2023-08-06T02:38:24;9.63;;;2.03;;
46463;SDS011;32161;48.148;-1.554;2023-08-06T02:40:52;8.55;;;2.08;;
46463;SDS011;32161;48.148;-1.554;2023-08-06T02:43:21;12.35;;;2.22;;
46463;SDS011;32161;48.148;-1.554;2023-08-06T02:45:48;8.15;;;1.88;;
46463;SDS011;32161;48.148;-1.554;2023-08-06T02:48:16;11.40;;;2.00;;
46463;SDS011;32161;48.148;-1.554;2023-08-06T02:50:44;7.63;;;1.80;;
46463;SDS011;32161;48.148;-1.554;2023-08-06T02:53:11;12.18;;;1.92;;
46463;SDS011;32161;48.148;-1.554;2023-08-06T02:55:44;9.40;;;2.47;;
46463;SDS011;32161;48.148;-1.554;2023-08-06T02:58:13;19.42;;;3.05;;
46463;SDS011;32161;48.148;-1.554;2023-08-06T03:00:42;11.18;;;2.10;;
46463;SDS011;32161;48.148;-1.554;2023-08-06T03:03:10;11.15;;;2.20;;
46463;SDS011;32161;48.148;-1.554;2023-08-06T03:05:38;9.68;;;2.20;;
46463;SDS011;32161;48.148;-1.554;2023-08-06T03:08:05;15.10;;;3.22;;
46463;SDS011;32161;48.148;-1.554;2023-08-06T03:10:33;8.85;;;1.83;;
46463;SDS011;32161;48.148;-1.554;2023-08-06T03:13:01;11.48;;;1.88;;
46463;SDS011;32161;48.148;-1.554;2023-08-06T03:15:29;6.70;;;1.63;;
46463;SDS011;32161;48.148;-1.554;2023-08-06T03:17:57;10.95;;;2.47;;
46463;SDS011;32161;48.148;-1.554;2023-08-06T03:20:25;11.07;;;2.30;;
46463;SDS011;32161;48.148;-1.554;2023-08-06T03:22:52;6.40;;;1.55;;
46463;SDS011;32161;48.148;-1.554;2023-08-06T03:25:20;9.85;;;2.08;;
46463;SDS011;32161;48.148;-1.554;2023-08-06T03:27:47;9.90;;;2.30;;
46463;SDS011;32161;48.148;-1.554;2023-08-06T03:30:15;6.25;;;1.67;;
46463;SDS011;32161;48.148;-1.554;2023-08-06T03:32:43;11.05;;;1.98;;
46463;SDS011;32161;48.148;-1.554;2023-08-06T03:35:13;8.32;;;1.80;;
46463;SDS011;32161;48.148;-1.554;2023-08-06T03:37:41;13.73;;;3.17;;
46463;SDS011;32161;48.148;-1.554;2023-08-06T03:40:09;8.60;;;2.53;;
46463;SDS011;32161;48.148;-1.554;2023-08-06T03:42:37;10.40;;;2.65;;
46463;SDS011;32161;48.148;-1.554;2023-08-06T03:45:05;16.42;;;2.25;;
46463;SDS011;32161;48.148;-1.554;2023-08-06T03:47:34;7.15;;;1.60;;
46463;SDS011;32161;48.148;-1.554;2023-08-06T03:50:02;10.90;;;2.22;;
46463;SDS011;32161;48.148;-1.554;2023-08-06T03:52:32;10.82;;;1.58;;
46463;SDS011;32161;48.148;-1.554;2023-08-06T03:54:59;11.07;;;2.45;;
46463;SDS011;32161;48.148;-1.554;2023-08-06T03:57:27;10.00;;;2.10;;
46463;SDS011;32161;48.148;-1.554;2023-08-06T03:59:55;12.38;;;2.03;;
46463;SDS011;32161;48.148;-1.554;2023-08-06T04:02:22;8.55;;;2.33;;
46463;SDS011;32161;48.148;-1.554;2023-08-06T04:04:50;14.88;;;2.20;;
46463;SDS011;32161;48.148;-1.554;2023-08-06T04:07:18;11.88;;;2.03;;
46463;SDS011;32161;48.148;-1.554;2023-08-06T04:09:54;13.23;;;2.15;;
46463;SDS011;32161;48.148;-1.554;2023-08-06T04:12:24;14.43;;;2.80;;
46463;SDS011;32161;48.148;-1.554;2023-08-06T04:14:52;6.25;;;2.10;;
46463;SDS011;32161;48.148;-1.554;2023-08-06T04:17:21;16.50;;;2.95;;
46463;SDS011;32161;48.148;-1.554;2023-08-06T04:19:49;9.18;;;2.67;;
46463;SDS011;32161;48.148;-1.554;2023-08-06T04:22:19;11.27;;;2.35;;
46463;SDS011;32161;48.148;-1.554;2023-08-06T04:24:47;15.82;;;1.80;;
46463;SDS011;32161;48.148;-1.554;2023-08-06T04:27:17;13.32;;;2.42;;
46463;SDS011;32161;48.148;-1.554;2023-08-06T04:29:45;9.73;;;2.00;;
46463;SDS011;32161;48.148;-1.554;2023-08-06T04:32:13;12.65;;;2.00;;
46463;SDS011;32161;48.148;-1.554;2023-08-06T04:34:41;14.75;;;1.95;;
46463;SDS011;32161;48.148;-1.554;2023-08-06T04:37:09;8.82;;;1.80;;
46463;SDS011;32161;48.148;-1.554;2023-08-06T04:39:37;10.23;;;1.80;;
46463;SDS011;32161;48.148;-1.554;2023-08-06T04:42:05;8.27;;;2.63;;
46463;SDS011;32161;48.148;-1.554;2023-08-06T04:44:34;9.60;;;2.10;;
46463;SDS011;32161;48.148;-1.554;2023-08-06T04:47:02;8.48;;;1.77;;
46463;SDS011;32161;48.148;-1.554;2023-08-06T04:49:30;11.02;;;1.90;;
46463;SDS011;32161;48.148;-1.554;2023-08-06T04:51:57;14.98;;;2.65;;
46463;SDS011;32161;48.148;-1.554;2023-08-06T04:54:25;14.18;;;2.47;;
46463;SDS011;32161;48.148;-1.554;2023-08-06T04:56:52;5.32;;;1.65;;
46463;SDS011;32161;48.148;-1.554;2023-08-06T04:59:20;11.57;;;2.10;;
46463;SDS011;32161;48.148;-1.554;2023-08-06T05:01:49;10.27;;;2.25;;
46463;SDS011;32161;48.148;-1.554;2023-08-06T05:04:16;6.78;;;1.70;;
46463;SDS011;32161;48.148;-1.554;2023-08-06T05:06:44;13.75;;;3.17;;
46463;SDS011;32161;48.148;-1.554;2023-08-06T05:09:11;11.27;;;1.70;;
46463;SDS011;32161;48.148;-1.554;2023-08-06T05:11:39;7.63;;;1.73;;
46463;SDS011;32161;48.148;-1.554;2023-08-06T05:14:06;7.10;;;1.40;;
46463;SDS011;32161;48.148;-1.554;2023-08-06T05:16:34;8.40;;;2.50;;
46463;SDS011;32161;48.148;-1.554;2023-08-06T05:19:03;8.63;;;1.90;;
46463;SDS011;32161;48.148;-1.554;2023-08-06T05:21:30;13.75;;;2.72;;
46463;SDS011;32161;48.148;-1.554;2023-08-06T05:23:58;12.43;;;1.77;;
46463;SDS011;32161;48.148;-1.554;2023-08-06T05:26:25;6.28;;;1.73;;
46463;SDS011;32161;48.148;-1.554;2023-08-06T05:28:53;11.95;;;2.00;;
46463;SDS011;32161;48.148;-1.554;2023-08-06T05:31:20;8.10;;;2.03;;
46463;SDS011;32161;48.148;-1.554;2023-08-06T05:33:48;12.40;;;2.35;;
46463;SDS011;32161;48.148;-1.554;2023-08-06T05:36:17;12.10;;;1.73;;
46463;SDS011;32161;48.148;-1.554;2023-08-06T05:38:44;8.57;;;1.70;;
46463;SDS011;32161;48.148;-1.554;2023-08-06T05:41:12;10.63;;;2.03;;
46463;SDS011;32161;48.148;-1.554;2023-08-06T05:43:40;10.55;;;1.90;;
46463;SDS011;32161;48.148;-1.554;2023-08-06T05:46:07;13.32;;;2.03;;
46463;SDS011;32161;48.148;-1.554;2023-08-06T05:48:35;10.15;;;2.30;;
46463;SDS011;32161;48.148;-1.554;2023-08-06T05:51:02;7.80;;;1.73;;
46463;SDS011;32161;48.148;-1.554;2023-08-06T05:53:31;10.20;;;2.00;;
46463;SDS011;32161;48.148;-1.554;2023-08-06T05:55:59;12.98;;;1.77;;
46463;SDS011;32161;48.148;-1.554;2023-08-06T05:58:26;9.95;;;2.30;;
46463;SDS011;32161;48.148;-1.554;2023-08-06T06:00:55;7.93;;;1.92;;
46463;SDS011;32161;48.148;-1.554;2023-08-06T06:03:23;12.77;;;2.05;;
46463;SDS011;32161;48.148;-1.554;2023-08-06T06:05:50;17.50;;;2.47;;
46463;SDS011;32161;48.148;-1.554;2023-08-06T06:08:18;11.38;;;2.33;;
46463;SDS011;32161;48.148;-1.554;2023-08-06T06:10:47;7.97;;;1.60;;
46463;SDS011;32161;48.148;-1.554;2023-08-06T06:13:14;11.80;;;1.70;;
46463;SDS011;32161;48.148;-1.554;2023-08-06T06:15:42;12.50;;;2.10;;
46463;SDS011;32161;48.148;-1.554;2023-08-06T06:18:09;4.03;;;1.65;;
46463;SDS011;32161;48.148;-1.554;2023-08-06T06:20:37;12.95;;;1.98;;
46463;SDS011;32161;48.148;-1.554;2023-08-06T06:23:04;11.00;;;2.30;;
46463;SDS011;32161;48.148;-1.554;2023-08-06T06:25:32;11.23;;;2.20;;
46463;SDS011;32161;48.148;-1.554;2023-08-06T06:28:01;11.25;;;2.20;;
46463;SDS011;32161;48.148;-1.554;2023-08-06T06:30:29;14.38;;;2.22;;
46463;SDS011;32161;48.148;-1.554;2023-08-06T06:32:56;16.65;;;3.28;;
46463;SDS011;32161;48.148;-1.554;2023-08-06T06:35:24;9.93;;;2.10;;
46463;SDS011;32161;48.148;-1.554;2023-08-06T06:37:51;10.98;;;2.47;;
46463;SDS011;32161;48.148;-1.554;2023-08-06T06:40:19;13.77;;;2.22;;
46463;SDS011;32161;48.148;-1.554;2023-08-06T06:42:46;14.60;;;2.60;;
46463;SDS011;32161;48.148;-1.554;2023-08-06T06:45:16;11.48;;;2.10;;
46463;SDS011;32161;48.148;-1.554;2023-08-06T06:47:43;17.15;;;2.75;;
46463;SDS011;32161;48.148;-1.554;2023-08-06T06:50:11;10.70;;;2.28;;
46463;SDS011;32161;48.148;-1.554;2023-08-06T06:52:39;10.93;;;2.15;;
46463;SDS011;32161;48.148;-1.554;2023-08-06T06:55:07;7.88;;;1.95;;
46463;SDS011;32161;48.148;-1.554;2023-08-06T06:57:35;14.85;;;2.67;;
46463;SDS011;32161;48.148;-1.554;2023-08-06T07:00:03;11.02;;;2.42;;
46463;SDS011;32161;48.148;-1.554;2023-08-06T07:02:34;14.40;;;2.42;;
46463;SDS011;32161;48.148;-1.554;2023-08-06T07:05:01;11.73;;;2.70;;
46463;SDS011;32161;48.148;-1.554;2023-08-06T07:07:29;9.85;;;2.30;;
46463;SDS011;32161;48.148;-1.554;2023-08-06T07:09:56;11.82;;;2.40;;
46463;SDS011;32161;48.148;-1.554;2023-08-06T07:12:24;13.07;;;2.47;;
46463;SDS011;32161;48.148;-1.554;2023-08-06T07:14:51;17.08;;;2.45;;
46463;SDS011;32161;48.148;-1.554;2023-08-06T07:17:19;14.57;;;2.70;;
46463;SDS011;32161;48.148;-1.554;2023-08-06T07:19:48;8.63;;;2.33;;
46463;SDS011;32161;48.148;-1.554;2023-08-06T07:22:15;12.02;;;3.22;;
46463;SDS011;32161;48.148;-1.554;2023-08-06T07:24:43;13.75;;;3.45;;
46463;SDS011;32161;48.148;-1.554;2023-08-06T07:27:11;9.77;;;1.92;;
46463;SDS011;32161;48.148;-1.554;2023-08-06T07:29:38;12.63;;;2.38;;
46463;SDS011;32161;48.148;-1.554;2023-08-06T07:32:06;12.95;;;1.90;;
46463;SDS011;32161;48.148;-1.554;2023-08-06T07:34:34;13.57;;;2.22;;
46463;SDS011;32161;48.148;-1.554;2023-08-06T07:37:03;13.13;;;2.45;;
46463;SDS011;32161;48.148;-1.554;2023-08-06T07:39:31;14.27;;;2.10;;
46463;SDS011;32161;48.148;-1.554;2023-08-06T07:41:59;15.77;;;2.58;;
46463;SDS011;32161;48.148;-1.554;2023-08-06T07:44:27;16.10;;;2.13;;
46463;SDS011;32161;48.148;-1.554;2023-08-06T07:46:55;12.55;;;2.25;;
46463;SDS011;32161;48.148;-1.554;2023-08-06T07:49:22;9.35;;;1.95;;
46463;SDS011;32161;48.148;-1.554;2023-08-06T07:51:50;14.45;;;2.33;;
46463;SDS011;32161;48.148;-1.554;2023-08-06T07:54:19;14.35;;;2.38;;
46463;SDS011;32161;48.148;-1.554;2023-08-06T07:56:47;14.25;;;2.63;;
46463;SDS011;32161;48.148;-1.554;2023-08-06T07:59:15;14.50;;;2.28;;
46463;SDS011;32161;48.148;-1.554;2023-08-06T08:01:42;9.20;;;1.92;;
46463;SDS011;32161;48.148;-1.554;2023-08-06T08:04:10;11.18;;;2.30;;
46463;SDS011;32161;48.148;-1.554;2023-08-06T08:06:37;13.85;;;2.03;;
46463;SDS011;32161;48.148;-1.554;2023-08-06T08:09:05;10.60;;;2.00;;
46463;SDS011;32161;48.148;-1.554;2023-08-06T08:11:34;14.90;;;1.95;;
46463;SDS011;32161;48.148;-1.554;2023-08-06T08:14:01;10.43;;;1.50;;
46463;SDS011;32161;48.148;-1.554;2023-08-06T08:16:29;7.63;;;1.65;;
46463;SDS011;32161;48.148;-1.554;2023-08-06T08:18:57;10.05;;;2.05;;
46463;SDS011;32161;48.148;-1.554;2023-08-06T08:21:24;8.05;;;1.55;;
46463;SDS011;32161;48.148;-1.554;2023-08-06T08:23:52;5.88;;;1.98;;
46463;SDS011;32161;48.148;-1.554;2023-08-06T08:26:20;9.13;;;1.77;;
46463;SDS011;32161;48.148;-1.554;2023-08-06T08:28:50;11.40;;;2.03;;
46463;SDS011;32161;48.148;-1.554;2023-08-06T08:31:17;7.85;;;1.77;;
46463;SDS011;32161;48.148;-1.554;2023-08-06T08:33:45;7.72;;;1.70;;
46463;SDS011;32161;48.148;-1.554;2023-08-06T08:36:12;10.07;;;2.03;;
46463;SDS011;32161;48.148;-1.554;2023-08-06T08:38:40;13.10;;;2.25;;
46463;SDS011;32161;48.148;-1.554;2023-08-06T08:41:09;8.93;;;2.38;;
46463;SDS011;32161;48.148;-1.554;2023-08-06T08:43:37;4.78;;;1.17;;
46463;SDS011;32161;48.148;-1.554;2023-08-06T08:46:08;8.38;;;1.70;;
46463;SDS011;32161;48.148;-1.554;2023-08-06T08:48:37;4.13;;;1.92;;
46463;SDS011;32161;48.148;-1.554;2023-08-06T08:51:05;4.80;;;1.48;;
46463;SDS011;32161;48.148;-1.554;2023-08-06T08:53:34;5.07;;;1.80;;
46463;SDS011;32161;48.148;-1.554;2023-08-06T08:56:04;3.10;;;1.42;;
46463;SDS011;32161;48.148;-1.554;2023-08-06T08:58:32;12.00;;;1.85;;
46463;SDS011;32161;48.148;-1.554;2023-08-06T09:01:00;3.78;;;1.33;;
46463;SDS011;32161;48.148;-1.554;2023-08-06T09:03:29;8.07;;;1.77;;
46463;SDS011;32161;48.148;-1.554;2023-08-06T09:05:57;6.93;;;1.30;;
46463;SDS011;32161;48.148;-1.554;2023-08-06T09:08:27;6.85;;;1.23;;
46463;SDS011;32161;48.148;-1.554;2023-08-06T09:11:00;4.93;;;1.50;;
46463;SDS011;32161;48.148;-1.554;2023-08-06T09:13:29;4.38;;;1.30;;
46463;SDS011;32161;48.148;-1.554;2023-08-06T09:15:56;10.27;;;1.27;;
46463;SDS011;32161;48.148;-1.554;2023-08-06T09:18:27;8.20;;;1.10;;
46463;SDS011;32161;48.148;-1.554;2023-08-06T09:20:57;7.88;;;1.50;;
46463;SDS011;32161;48.148;-1.554;2023-08-06T09:23:28;7.22;;;2.30;;
46463;SDS011;32161;48.148;-1.554;2023-08-06T09:25:57;5.57;;;1.70;;
46463;SDS011;32161;48.148;-1.554;2023-08-06T09:28:24;5.07;;;1.17;;
46463;SDS011;32161;48.148;-1.554;2023-08-06T09:31:04;4.18;;;1.27;;
46463;SDS011;32161;48.148;-1.554;2023-08-06T09:33:33;7.55;;;1.35;;
46463;SDS011;32161;48.148;-1.554;2023-08-06T09:36:07;5.18;;;1.65;;
46463;SDS011;32161;48.148;-1.554;2023-08-06T09:38:39;7.10;;;1.38;;
46463;SDS011;32161;48.148;-1.554;2023-08-06T09:43:41;3.85;;;1.40;;
46463;SDS011;32161;48.148;-1.554;2023-08-06T09:46:12;3.60;;;0.93;;
46463;SDS011;32161;48.148;-1.554;2023-08-06T09:48:45;8.23;;;2.03;;
46463;SDS011;32161;48.148;-1.554;2023-08-06T09:51:13;1.85;;;0.73;;
46463;SDS011;32161;48.148;-1.554;2023-08-06T09:53:41;6.20;;;0.82;;
46463;SDS011;32161;48.148;-1.554;2023-08-06T09:56:10;6.78;;;1.23;;
46463;SDS011;32161;48.148;-1.554;2023-08-06T09:58:39;3.67;;;1.25;;
46463;SDS011;32161;48.148;-1.554;2023-08-06T10:01:07;4.40;;;1.40;;
46463;SDS011;32161;48.148;-1.554;2023-08-06T10:03:35;5.65;;;1.48;;
46463;SDS011;32161;48.148;-1.554;2023-08-06T10:06:06;7.78;;;2.05;;
46463;SDS011;32161;48.148;-1.554;2023-08-06T10:08:34;6.05;;;1.42;;
46463;SDS011;32161;48.148;-1.554;2023-08-06T10:11:02;3.25;;;1.00;;
46463;SDS011;32161;48.148;-1.554;2023-08-06T10:13:30;8.05;;;1.58;;
46463;SDS011;32161;48.148;-1.554;2023-08-06T10:16:00;5.72;;;1.25;;
46463;SDS011;32161;48.148;-1.554;2023-08-06T10:18:29;2.58;;;1.00;;
46463;SDS011;32161;48.148;-1.554;2023-08-06T10:20:58;4.80;;;1.20;;
46463;SDS011;32161;48.148;-1.554;2023-08-06T10:23:34;4.20;;;0.77;;
46463;SDS011;32161;48.148;-1.554;2023-08-06T10:26:03;1.10;;;0.40;;
46463;SDS011;32161;48.148;-1.554;2023-08-06T10:28:34;3.35;;;0.70;;
46463;SDS011;32161;48.148;-1.554;2023-08-06T10:31:03;2.42;;;0.98;;
46463;SDS011;32161;48.148;-1.554;2023-08-06T10:33:40;2.30;;;0.57;;
46463;SDS011;32161;48.148;-1.554;2023-08-06T10:36:09;2.38;;;0.70;;
46463;SDS011;32161;48.148;-1.554;2023-08-06T10:38:45;1.88;;;0.60;;
46463;SDS011;32161;48.148;-1.554;2023-08-06T10:41:22;2.13;;;0.50;;
46463;SDS011;32161;48.148;-1.554;2023-08-06T10:44:04;2.93;;;0.90;;
46463;SDS011;32161;48.148;-1.554;2023-08-06T10:46:33;2.80;;;0.63;;
46463;SDS011;32161;48.148;-1.554;2023-08-06T10:49:01;3.63;;;0.88;;
46463;SDS011;32161;48.148;-1.554;2023-08-06T10:51:30;4.85;;;0.90;;
46463;SDS011;32161;48.148;-1.554;2023-08-06T10:53:59;4.47;;;1.42;;
46463;SDS011;32161;48.148;-1.554;2023-08-06T10:56:26;3.15;;;0.98;;
46463;SDS011;32161;48.148;-1.554;2023-08-06T10:58:54;5.30;;;1.20;;
46463;SDS011;32161;48.148;-1.554;2023-08-06T11:01:23;5.53;;;0.77;;
46463;SDS011;32161;48.148;-1.554;2023-08-06T11:03:54;1.40;;;0.77;;
46463;SDS011;32161;48.148;-1.554;2023-08-06T11:06:22;4.22;;;1.10;;
46463;SDS011;32161;48.148;-1.554;2023-08-06T11:08:51;4.03;;;1.23;;
46463;SDS011;32161;48.148;-1.554;2023-08-06T11:11:22;6.10;;;1.30;;
46463;SDS011;32161;48.148;-1.554;2023-08-06T11:13:51;1.73;;;0.63;;
46463;SDS011;32161;48.148;-1.554;2023-08-06T11:16:19;1.50;;;0.45;;
46463;SDS011;32161;48.148;-1.554;2023-08-06T11:18:49;1.55;;;0.60;;
46463;SDS011;32161;48.148;-1.554;2023-08-06T11:21:18;2.38;;;0.68;;
46463;SDS011;32161;48.148;-1.554;2023-08-06T11:23:47;2.08;;;0.70;;
46463;SDS011;32161;48.148;-1.554;2023-08-06T11:26:18;1.10;;;0.47;;
46463;SDS011;32161;48.148;-1.554;2023-08-06T11:31:21;1.10;;;0.40;;
46463;SDS011;32161;48.148;-1.554;2023-08-06T11:33:49;1.10;;;0.55;;
46463;SDS011;32161;48.148;-1.554;2023-08-06T11:36:27;0.30;;;0.30;;
46463;SDS011;32161;48.148;-1.554;2023-08-06T11:38:56;1.05;;;0.35;;
46463;SDS011;32161;48.148;-1.554;2023-08-06T11:41:24;3.22;;;0.57;;
46463;SDS011;32161;48.148;-1.554;2023-08-06T11:43:55;2.30;;;0.55;;
46463;SDS011;32161;48.148;-1.554;2023-08-06T11:46:23;1.33;;;0.57;;
46463;SDS011;32161;48.148;-1.554;2023-08-06T11:48:51;3.95;;;1.33;;
46463;SDS011;32161;48.148;-1.554;2023-08-06T11:51:22;2.45;;;0.70;;
46463;SDS011;32161;48.148;-1.554;2023-08-06T11:53:51;1.52;;;0.70;;
46463;SDS011;32161;48.148;-1.554;2023-08-06T11:56:21;1.73;;;0.50;;
46463;SDS011;32161;48.148;-1.554;2023-08-06T11:58:49;0.95;;;0.75;;
46463;SDS011;32161;48.148;-1.554;2023-08-06T12:01:18;2.25;;;1.60;;
46463;SDS011;32161;48.148;-1.554;2023-08-06T12:03:45;11.95;;;5.40;;
46463;SDS011;32161;48.148;-1.554;2023-08-06T12:06:13;4.20;;;2.13;;
46463;SDS011;32161;48.148;-1.554;2023-08-06T12:08:40;3.17;;;1.55;;
46463;SDS011;32161;48.148;-1.554;2023-08-06T12:11:08;5.50;;;2.22;;
46463;SDS011;32161;48.148;-1.554;2023-08-06T12:13:36;2.80;;;1.33;;
46463;SDS011;32161;48.148;-1.554;2023-08-06T12:16:04;8.35;;;2.15;;
46463;SDS011;32161;48.148;-1.554;2023-08-06T12:18:33;2.55;;;1.35;;
46463;SDS011;32161;48.148;-1.554;2023-08-06T12:21:00;5.28;;;2.05;;
46463;SDS011;32161;48.148;-1.554;2023-08-06T12:23:28;1.98;;;1.25;;
46463;SDS011;32161;48.148;-1.554;2023-08-06T12:25:58;3.50;;;1.10;;
46463;SDS011;32161;48.148;-1.554;2023-08-06T12:28:25;1.85;;;1.08;;
46463;SDS011;32161;48.148;-1.554;2023-08-06T12:30:53;2.40;;;0.98;;
46463;SDS011;32161;48.148;-1.554;2023-08-06T12:33:21;1.45;;;0.90;;
46463;SDS011;32161;48.148;-1.554;2023-08-06T12:35:50;3.35;;;1.20;;
46463;SDS011;32161;48.148;-1.554;2023-08-06T12:38:19;4.25;;;1.25;;
46463;SDS011;32161;48.148;-1.554;2023-08-06T12:40:47;3.22;;;1.08;;
46463;SDS011;32161;48.148;-1.554;2023-08-06T12:43:14;1.15;;;0.70;;
46463;SDS011;32161;48.148;-1.554;2023-08-06T12:45:42;2.22;;;0.57;;
46463;SDS011;32161;48.148;-1.554;2023-08-06T12:48:09;2.67;;;0.70;;
46463;SDS011;32161;48.148;-1.554;2023-08-06T12:50:37;1.88;;;0.80;;
46463;SDS011;32161;48.148;-1.554;2023-08-06T12:53:05;3.30;;;0.70;;
46463;SDS011;32161;48.148;-1.554;2023-08-06T12:55:34;1.20;;;0.60;;
46463;SDS011;32161;48.148;-1.554;2023-08-06T12:58:01;2.00;;;0.70;;
46463;SDS011;32161;48.148;-1.554;2023-08-06T13:00:29;2.03;;;0.63;;
46463;SDS011;32161;48.148;-1.554;2023-08-06T13:02:57;1.92;;;0.60;;
46463;SDS011;32161;48.148;-1.554;2023-08-06T13:05:24;1.45;;;0.50;;
46463;SDS011;32161;48.148;-1.554;2023-08-06T13:07:52;1.55;;;0.68;;
46463;SDS011;32161;48.148;-1.554;2023-08-06T13:10:21;2.20;;;0.55;;
46463;SDS011;32161;48.148;-1.554;2023-08-06T13:12:49;2.92;;;0.60;;
46463;SDS011;32161;48.148;-1.554;2023-08-06T13:15:17;2.85;;;0.73;;
46463;SDS011;32161;48.148;-1.554;2023-08-06T13:17:46;2.30;;;0.85;;
46463;SDS011;32161;48.148;-1.554;2023-08-06T13:20:13;1.33;;;0.98;;
46463;SDS011;32161;48.148;-1.554;2023-08-06T13:22:41;2.25;;;0.95;;
46463;SDS011;32161;48.148;-1.554;2023-08-06T13:25:11;1.63;;;0.45;;
46463;SDS011;32161;48.148;-1.554;2023-08-06T13:27:41;1.73;;;0.60;;
46463;SDS011;32161;48.148;-1.554;2023-08-06T13:30:09;1.13;;;0.55;;
46463;SDS011;32161;48.148;-1.554;2023-08-06T13:32:37;2.72;;;0.45;;
46463;SDS011;32161;48.148;-1.554;2023-08-06T13:35:05;1.52;;;0.82;;
46463;SDS011;32161;48.148;-1.554;2023-08-06T13:37:33;5.18;;;1.15;;
46463;SDS011;32161;48.148;-1.554;2023-08-06T13:40:01;5.35;;;0.55;;
46463;SDS011;32161;48.148;-1.554;2023-08-06T13:42:28;2.47;;;0.88;;
46463;SDS011;32161;48.148;-1.554;2023-08-06T13:44:58;2.72;;;0.52;;
46463;SDS011;32161;48.148;-1.554;2023-08-06T13:47:28;5.90;;;0.98;;
46463;SDS011;32161;48.148;-1.554;2023-08-06T13:49:56;0.90;;;0.60;;
46463;SDS011;32161;48.148;-1.554;2023-08-06T13:52:24;4.55;;;0.60;;
46463;SDS011;32161;48.148;-1.554;2023-08-06T13:54:53;3.97;;;1.38;;
46463;SDS011;32161;48.148;-1.554;2023-08-06T13:57:20;2.55;;;0.65;;
46463;SDS011;32161;48.148;-1.554;2023-08-06T13:59:48;2.97;;;1.15;;
46463;SDS011;32161;48.148;-1.554;2023-08-06T14:02:17;0.75;;;0.70;;
46463;SDS011;32161;48.148;-1.554;2023-08-06T14:04:44;2.83;;;0.75;;
46463;SDS011;32161;48.148;-1.554;2023-08-06T14:07:12;1.73;;;1.00;;
46463;SDS011;32161;48.148;-1.554;2023-08-06T14:09:39;3.08;;;0.80;;
46463;SDS011;32161;48.148;-1.554;2023-08-06T14:12:09;3.13;;;0.90;;
46463;SDS011;32161;48.148;-1.554;2023-08-06T14:14:36;3.03;;;0.70;;
46463;SDS011;32161;48.148;-1.554;2023-08-06T14:17:04;1.80;;;0.73;;
46463;SDS011;32161;48.148;-1.554;2023-08-06T14:19:33;4.10;;;0.85;;
46463;SDS011;32161;48.148;-1.554;2023-08-06T14:22:00;2.25;;;0.70;;
46463;SDS011;32161;48.148;-1.554;2023-08-06T14:24:28;2.30;;;0.68;;
46463;SDS011;32161;48.148;-1.554;2023-08-06T14:26:56;2.83;;;1.02;;
46463;SDS011;32161;48.148;-1.554;2023-08-06T14:29:23;1.60;;;0.70;;
46463;SDS011;32161;48.148;-1.554;2023-08-06T14:31:51;1.77;;;0.80;;
46463;SDS011;32161;48.148;-1.554;2023-08-06T14:34:18;2.78;;;0.70;;
46463;SDS011;32161;48.148;-1.554;2023-08-06T14:36:48;1.55;;;0.70;;
46463;SDS011;32161;48.148;-1.554;2023-08-06T14:39:15;3.03;;;0.93;;
46463;SDS011;32161;48.148;-1.554;2023-08-06T14:41:43;0.60;;;0.60;;